sensor_id;sensor_type;location;lat;lon;timestamp;P1;durP1;ratioP1;P2;durP2;ratioP2
56997;SDS011;42890;44.244;22.530;2023-07-29T00:00:54;6.32;;;5.50;;
56997;SDS011;42890;44.244;22.530;2023-07-29T00:03:21;6.57;;;5.78;;
56997;SDS011;42890;44.244;22.530;2023-07-29T00:05:47;6.20;;;5.63;;
56997;SDS011;42890;44.244;22.530;2023-07-29T00:08:13;9.60;;;6.18;;
56997;SDS011;42890;44.244;22.530;2023-07-29T00:10:40;6.72;;;5.53;;
56997;SDS011;42890;44.244;22.530;2023-07-29T00:13:06;7.53;;;5.57;;
56997;SDS011;42890;44.244;22.530;2023-07-29T00:15:33;7.65;;;5.88;;
56997;SDS011;42890;44.244;22.530;2023-07-29T00:18:00;7.80;;;4.80;;
56997;SDS011;42890;44.244;22.530;2023-07-29T00:20:26;8.65;;;5.20;;
56997;SDS011;42890;44.244;22.530;2023-07-29T00:22:52;7.07;;;4.72;;
56997;SDS011;42890;44.244;22.530;2023-07-29T00:25:19;5.45;;;4.95;;
56997;SDS011;42890;44.244;22.530;2023-07-29T00:27:46;9.13;;;4.88;;
56997;SDS011;42890;44.244;22.530;2023-07-29T00:30:12;5.40;;;4.90;;
56997;SDS011;42890;44.244;22.530;2023-07-29T00:32:38;5.90;;;5.40;;
56997;SDS011;42890;44.244;22.530;2023-07-29T00:35:04;7.00;;;5.78;;
56997;SDS011;42890;44.244;22.530;2023-07-29T00:37:31;6.63;;;5.68;;
56997;SDS011;42890;44.244;22.530;2023-07-29T00:39:57;7.13;;;5.72;;
56997;SDS011;42890;44.244;22.530;2023-07-29T00:42:23;6.05;;;5.15;;
56997;SDS011;42890;44.244;22.530;2023-07-29T00:44:49;9.38;;;5.20;;
56997;SDS011;42890;44.244;22.530;2023-07-29T00:47:16;7.80;;;5.13;;
56997;SDS011;42890;44.244;22.530;2023-07-29T00:49:45;6.00;;;5.05;;
56997;SDS011;42890;44.244;22.530;2023-07-29T00:52:11;5.88;;;5.28;;
56997;SDS011;42890;44.244;22.530;2023-07-29T00:54:40;5.47;;;4.97;;
56997;SDS011;42890;44.244;22.530;2023-07-29T00:57:08;9.82;;;5.38;;
56997;SDS011;42890;44.244;22.530;2023-07-29T00:59:35;7.07;;;5.00;;
56997;SDS011;42890;44.244;22.530;2023-07-29T01:02:01;6.20;;;5.60;;
56997;SDS011;42890;44.244;22.530;2023-07-29T01:04:27;6.75;;;5.72;;
56997;SDS011;42890;44.244;22.530;2023-07-29T01:07:05;6.30;;;5.53;;
56997;SDS011;42890;44.244;22.530;2023-07-29T01:12:20;7.50;;;6.38;;
56997;SDS011;42890;44.244;22.530;2023-07-29T01:17:29;5.50;;;5.00;;
56997;SDS011;42890;44.244;22.530;2023-07-29T01:22:26;5.75;;;4.80;;
56997;SDS011;42890;44.244;22.530;2023-07-29T01:24:53;6.10;;;4.85;;
56997;SDS011;42890;44.244;22.530;2023-07-29T01:27:19;4.70;;;4.22;;
56997;SDS011;42890;44.244;22.530;2023-07-29T01:29:45;5.55;;;4.25;;
56997;SDS011;42890;44.244;22.530;2023-07-29T01:32:13;4.68;;;4.28;;
56997;SDS011;42890;44.244;22.530;2023-07-29T01:37:39;6.88;;;4.60;;
56997;SDS011;42890;44.244;22.530;2023-07-29T01:40:06;5.25;;;4.35;;
56997;SDS011;42890;44.244;22.530;2023-07-29T01:42:33;4.97;;;4.53;;
56997;SDS011;42890;44.244;22.530;2023-07-29T01:44:59;5.00;;;4.50;;
56997;SDS011;42890;44.244;22.530;2023-07-29T01:47:25;4.90;;;4.50;;
56997;SDS011;42890;44.244;22.530;2023-07-29T01:49:52;6.45;;;4.60;;
56997;SDS011;42890;44.244;22.530;2023-07-29T01:52:18;5.13;;;4.70;;
56997;SDS011;42890;44.244;22.530;2023-07-29T01:54:44;4.97;;;4.57;;
56997;SDS011;42890;44.244;22.530;2023-07-29T01:57:10;7.10;;;4.30;;
56997;SDS011;42890;44.244;22.530;2023-07-29T01:59:36;5.97;;;4.55;;
56997;SDS011;42890;44.244;22.530;2023-07-29T02:02:02;6.53;;;4.70;;
56997;SDS011;42890;44.244;22.530;2023-07-29T02:04:28;4.95;;;4.47;;
56997;SDS011;42890;44.244;22.530;2023-07-29T02:06:55;9.63;;;4.35;;
56997;SDS011;42890;44.244;22.530;2023-07-29T02:09:21;6.55;;;5.05;;
56997;SDS011;42890;44.244;22.530;2023-07-29T02:11:47;5.28;;;4.78;;
56997;SDS011;42890;44.244;22.530;2023-07-29T02:14:13;5.38;;;4.75;;
56997;SDS011;42890;44.244;22.530;2023-07-29T02:16:39;4.80;;;4.40;;
56997;SDS011;42890;44.244;22.530;2023-07-29T02:19:06;9.63;;;4.40;;
56997;SDS011;42890;44.244;22.530;2023-07-29T02:21:33;7.55;;;4.60;;
56997;SDS011;42890;44.244;22.530;2023-07-29T02:23:59;5.95;;;4.65;;
56997;SDS011;42890;44.244;22.530;2023-07-29T02:26:25;4.93;;;4.50;;
56997;SDS011;42890;44.244;22.530;2023-07-29T02:28:51;5.88;;;4.07;;
56997;SDS011;42890;44.244;22.530;2023-07-29T02:31:20;6.13;;;4.43;;
56997;SDS011;42890;44.244;22.530;2023-07-29T02:33:46;8.50;;;4.78;;
56997;SDS011;42890;44.244;22.530;2023-07-29T02:36:12;4.70;;;4.30;;
56997;SDS011;42890;44.244;22.530;2023-07-29T02:38:39;7.35;;;5.00;;
56997;SDS011;42890;44.244;22.530;2023-07-29T02:41:05;5.63;;;4.88;;
56997;SDS011;42890;44.244;22.530;2023-07-29T02:43:33;6.18;;;5.15;;
56997;SDS011;42890;44.244;22.530;2023-07-29T02:46:00;7.60;;;5.38;;
56997;SDS011;42890;44.244;22.530;2023-07-29T02:48:26;6.45;;;5.22;;
56997;SDS011;42890;44.244;22.530;2023-07-29T02:50:53;5.70;;;5.20;;
56997;SDS011;42890;44.244;22.530;2023-07-29T02:53:19;5.95;;;5.10;;
56997;SDS011;42890;44.244;22.530;2023-07-29T02:55:45;7.70;;;5.22;;
56997;SDS011;42890;44.244;22.530;2023-07-29T02:58:11;7.78;;;5.35;;
56997;SDS011;42890;44.244;22.530;2023-07-29T03:00:37;5.88;;;5.22;;
56997;SDS011;42890;44.244;22.530;2023-07-29T03:03:07;7.13;;;5.20;;
56997;SDS011;42890;44.244;22.530;2023-07-29T03:05:33;5.65;;;5.18;;
56997;SDS011;42890;44.244;22.530;2023-07-29T03:07:59;5.53;;;4.85;;
56997;SDS011;42890;44.244;22.530;2023-07-29T03:10:25;6.82;;;5.22;;
56997;SDS011;42890;44.244;22.530;2023-07-29T03:12:54;6.68;;;5.60;;
56997;SDS011;42890;44.244;22.530;2023-07-29T03:15:24;5.75;;;5.25;;
56997;SDS011;42890;44.244;22.530;2023-07-29T03:17:51;9.77;;;5.57;;
56997;SDS011;42890;44.244;22.530;2023-07-29T03:20:17;10.15;;;5.63;;
56997;SDS011;42890;44.244;22.530;2023-07-29T03:22:43;5.90;;;5.47;;
56997;SDS011;42890;44.244;22.530;2023-07-29T03:25:09;5.32;;;4.90;;
56997;SDS011;42890;44.244;22.530;2023-07-29T03:27:37;5.68;;;5.03;;
56997;SDS011;42890;44.244;22.530;2023-07-29T03:30:05;5.35;;;4.28;;
56997;SDS011;42890;44.244;22.530;2023-07-29T03:32:32;6.18;;;4.10;;
56997;SDS011;42890;44.244;22.530;2023-07-29T03:34:58;7.07;;;4.40;;
56997;SDS011;42890;44.244;22.530;2023-07-29T03:37:24;5.35;;;4.95;;
56997;SDS011;42890;44.244;22.530;2023-07-29T03:39:50;6.20;;;4.78;;
56997;SDS011;42890;44.244;22.530;2023-07-29T03:42:17;7.43;;;5.20;;
56997;SDS011;42890;44.244;22.530;2023-07-29T03:44:43;4.88;;;4.47;;
56997;SDS011;42890;44.244;22.530;2023-07-29T03:47:09;5.30;;;4.63;;
56997;SDS011;42890;44.244;22.530;2023-07-29T03:49:35;4.80;;;4.40;;
56997;SDS011;42890;44.244;22.530;2023-07-29T03:52:01;9.63;;;4.40;;
56997;SDS011;42890;44.244;22.530;2023-07-29T03:54:28;4.80;;;4.40;;
56997;SDS011;42890;44.244;22.530;2023-07-29T03:56:54;5.38;;;4.88;;
56997;SDS011;42890;44.244;22.530;2023-07-29T03:59:20;5.68;;;4.90;;
56997;SDS011;42890;44.244;22.530;2023-07-29T04:01:48;4.80;;;4.40;;
56997;SDS011;42890;44.244;22.530;2023-07-29T04:04:14;5.57;;;4.82;;
56997;SDS011;42890;44.244;22.530;2023-07-29T04:06:40;5.85;;;4.70;;
56997;SDS011;42890;44.244;22.530;2023-07-29T04:09:06;5.20;;;4.70;;
56997;SDS011;42890;44.244;22.530;2023-07-29T04:11:33;7.35;;;4.90;;
56997;SDS011;42890;44.244;22.530;2023-07-29T04:13:59;10.95;;;4.45;;
56997;SDS011;42890;44.244;22.530;2023-07-29T04:16:25;8.85;;;5.28;;
56997;SDS011;42890;44.244;22.530;2023-07-29T04:18:51;6.00;;;5.40;;
56997;SDS011;42890;44.244;22.530;2023-07-29T04:21:17;6.38;;;5.80;;
56997;SDS011;42890;44.244;22.530;2023-07-29T04:23:43;6.85;;;5.72;;
56997;SDS011;42890;44.244;22.530;2023-07-29T04:26:10;6.53;;;5.95;;
56997;SDS011;42890;44.244;22.530;2023-07-29T04:28:36;7.18;;;6.47;;
56997;SDS011;42890;44.244;22.530;2023-07-29T04:31:02;6.25;;;5.82;;
56997;SDS011;42890;44.244;22.530;2023-07-29T04:33:29;6.35;;;5.70;;
56997;SDS011;42890;44.244;22.530;2023-07-29T04:35:56;6.47;;;5.60;;
56997;SDS011;42890;44.244;22.530;2023-07-29T04:38:24;6.13;;;5.63;;
56997;SDS011;42890;44.244;22.530;2023-07-29T04:40:50;7.00;;;5.53;;
56997;SDS011;42890;44.244;22.530;2023-07-29T04:43:16;10.70;;;5.80;;
56997;SDS011;42890;44.244;22.530;2023-07-29T04:45:43;13.70;;;5.75;;
56997;SDS011;42890;44.244;22.530;2023-07-29T04:48:09;6.78;;;5.22;;
56997;SDS011;42890;44.244;22.530;2023-07-29T04:50:35;6.15;;;4.88;;
56997;SDS011;42890;44.244;22.530;2023-07-29T04:53:01;10.20;;;4.85;;
56997;SDS011;42890;44.244;22.530;2023-07-29T04:55:27;4.93;;;4.47;;
56997;SDS011;42890;44.244;22.530;2023-07-29T04:57:53;6.88;;;5.10;;
56997;SDS011;42890;44.244;22.530;2023-07-29T05:00:19;5.22;;;4.53;;
56997;SDS011;42890;44.244;22.530;2023-07-29T05:02:45;5.13;;;4.63;;
56997;SDS011;42890;44.244;22.530;2023-07-29T05:05:11;5.28;;;4.55;;
56997;SDS011;42890;44.244;22.530;2023-07-29T05:07:38;5.30;;;4.80;;
56997;SDS011;42890;44.244;22.530;2023-07-29T05:10:04;5.10;;;4.65;;
56997;SDS011;42890;44.244;22.530;2023-07-29T05:12:30;5.78;;;5.03;;
56997;SDS011;42890;44.244;22.530;2023-07-29T05:14:57;9.63;;;5.20;;
56997;SDS011;42890;44.244;22.530;2023-07-29T05:17:24;8.43;;;5.13;;
56997;SDS011;42890;44.244;22.530;2023-07-29T05:19:50;5.32;;;4.82;;
56997;SDS011;42890;44.244;22.530;2023-07-29T05:22:16;6.53;;;5.22;;
56997;SDS011;42890;44.244;22.530;2023-07-29T05:24:42;4.50;;;4.20;;
56997;SDS011;42890;44.244;22.530;2023-07-29T05:27:09;4.88;;;4.47;;
56997;SDS011;42890;44.244;22.530;2023-07-29T05:29:35;6.78;;;4.43;;
56997;SDS011;42890;44.244;22.530;2023-07-29T05:32:01;5.68;;;4.68;;
56997;SDS011;42890;44.244;22.530;2023-07-29T05:34:27;5.13;;;4.63;;
56997;SDS011;42890;44.244;22.530;2023-07-29T05:36:53;6.63;;;4.38;;
56997;SDS011;42890;44.244;22.530;2023-07-29T05:39:19;5.13;;;4.65;;
56997;SDS011;42890;44.244;22.530;2023-07-29T05:41:46;8.68;;;4.80;;
56997;SDS011;42890;44.244;22.530;2023-07-29T05:44:12;5.25;;;4.72;;
56997;SDS011;42890;44.244;22.530;2023-07-29T05:46:38;5.35;;;4.75;;
56997;SDS011;42890;44.244;22.530;2023-07-29T05:49:04;4.55;;;4.15;;
56997;SDS011;42890;44.244;22.530;2023-07-29T05:51:30;4.70;;;4.30;;
56997;SDS011;42890;44.244;22.530;2023-07-29T05:53:56;6.63;;;4.28;;
56997;SDS011;42890;44.244;22.530;2023-07-29T05:56:23;4.93;;;4.18;;
56997;SDS011;42890;44.244;22.530;2023-07-29T05:58:49;5.43;;;4.00;;
56997;SDS011;42890;44.244;22.530;2023-07-29T06:01:15;5.60;;;4.18;;
56997;SDS011;42890;44.244;22.530;2023-07-29T06:03:41;7.35;;;4.13;;
56997;SDS011;42890;44.244;22.530;2023-07-29T06:06:08;7.47;;;4.70;;
56997;SDS011;42890;44.244;22.530;2023-07-29T06:08:34;4.93;;;4.30;;
56997;SDS011;42890;44.244;22.530;2023-07-29T06:11:00;7.28;;;4.90;;
56997;SDS011;42890;44.244;22.530;2023-07-29T06:13:27;6.63;;;4.53;;
56997;SDS011;42890;44.244;22.530;2023-07-29T06:15:53;5.90;;;4.72;;
56997;SDS011;42890;44.244;22.530;2023-07-29T06:18:19;6.78;;;4.60;;
56997;SDS011;42890;44.244;22.530;2023-07-29T06:20:45;5.82;;;4.43;;
56997;SDS011;42890;44.244;22.530;2023-07-29T06:23:11;5.45;;;4.40;;
56997;SDS011;42890;44.244;22.530;2023-07-29T06:25:37;12.98;;;4.97;;
56997;SDS011;42890;44.244;22.530;2023-07-29T06:28:03;4.45;;;4.05;;
56997;SDS011;42890;44.244;22.530;2023-07-29T06:30:30;8.80;;;4.63;;
56997;SDS011;42890;44.244;22.530;2023-07-29T06:32:56;12.40;;;4.85;;
56997;SDS011;42890;44.244;22.530;2023-07-29T06:35:22;7.82;;;4.13;;
56997;SDS011;42890;44.244;22.530;2023-07-29T06:37:48;5.85;;;4.90;;
56997;SDS011;42890;44.244;22.530;2023-07-29T06:40:15;11.02;;;5.05;;
56997;SDS011;42890;44.244;22.530;2023-07-29T06:42:41;5.47;;;4.35;;
56997;SDS011;42890;44.244;22.530;2023-07-29T06:45:07;7.07;;;4.80;;
56997;SDS011;42890;44.244;22.530;2023-07-29T06:47:33;5.25;;;4.07;;
56997;SDS011;42890;44.244;22.530;2023-07-29T06:49:59;5.07;;;4.15;;
56997;SDS011;42890;44.244;22.530;2023-07-29T06:52:26;8.90;;;4.90;;
56997;SDS011;42890;44.244;22.530;2023-07-29T06:54:52;7.68;;;4.53;;
56997;SDS011;42890;44.244;22.530;2023-07-29T06:57:18;5.22;;;4.32;;
56997;SDS011;42890;44.244;22.530;2023-07-29T06:59:44;4.57;;;4.18;;
56997;SDS011;42890;44.244;22.530;2023-07-29T07:02:10;5.88;;;4.47;;
56997;SDS011;42890;44.244;22.530;2023-07-29T07:04:36;4.93;;;4.40;;
56997;SDS011;42890;44.244;22.530;2023-07-29T07:07:03;5.00;;;4.00;;
56997;SDS011;42890;44.244;22.530;2023-07-29T07:09:29;10.13;;;4.10;;
56997;SDS011;42890;44.244;22.530;2023-07-29T07:11:55;4.65;;;3.70;;
56997;SDS011;42890;44.244;22.530;2023-07-29T07:14:21;4.95;;;4.18;;
56997;SDS011;42890;44.244;22.530;2023-07-29T07:16:47;5.07;;;4.47;;
56997;SDS011;42890;44.244;22.530;2023-07-29T07:19:13;4.65;;;4.25;;
56997;SDS011;42890;44.244;22.530;2023-07-29T07:21:39;4.60;;;4.20;;
56997;SDS011;42890;44.244;22.530;2023-07-29T07:24:05;4.70;;;4.15;;
56997;SDS011;42890;44.244;22.530;2023-07-29T07:26:32;7.05;;;4.00;;
56997;SDS011;42890;44.244;22.530;2023-07-29T07:28:58;7.05;;;3.85;;
56997;SDS011;42890;44.244;22.530;2023-07-29T07:31:24;5.75;;;4.25;;
56997;SDS011;42890;44.244;22.530;2023-07-29T07:33:50;14.32;;;4.03;;
56997;SDS011;42890;44.244;22.530;2023-07-29T07:36:16;7.82;;;4.03;;
56997;SDS011;42890;44.244;22.530;2023-07-29T07:38:44;6.25;;;4.20;;
56997;SDS011;42890;44.244;22.530;2023-07-29T07:41:10;5.55;;;3.92;;
56997;SDS011;42890;44.244;22.530;2023-07-29T07:43:36;10.90;;;4.00;;
56997;SDS011;42890;44.244;22.530;2023-07-29T07:46:02;5.65;;;3.95;;
56997;SDS011;42890;44.244;22.530;2023-07-29T07:48:29;4.43;;;3.90;;
56997;SDS011;42890;44.244;22.530;2023-07-29T07:50:55;6.43;;;4.05;;
56997;SDS011;42890;44.244;22.530;2023-07-29T07:53:21;6.35;;;3.97;;
56997;SDS011;42890;44.244;22.530;2023-07-29T07:55:47;5.95;;;3.67;;
56997;SDS011;42890;44.244;22.530;2023-07-29T07:58:13;7.18;;;3.53;;
56997;SDS011;42890;44.244;22.530;2023-07-29T08:00:40;4.90;;;3.53;;
56997;SDS011;42890;44.244;22.530;2023-07-29T08:03:06;5.13;;;3.65;;
56997;SDS011;42890;44.244;22.530;2023-07-29T08:05:32;4.10;;;3.80;;
56997;SDS011;42890;44.244;22.530;2023-07-29T08:07:58;5.60;;;3.70;;
56997;SDS011;42890;44.244;22.530;2023-07-29T08:10:24;6.43;;;3.70;;
56997;SDS011;42890;44.244;22.530;2023-07-29T08:12:51;3.80;;;3.50;;
56997;SDS011;42890;44.244;22.530;2023-07-29T08:15:17;4.15;;;3.47;;
56997;SDS011;42890;44.244;22.530;2023-07-29T08:17:43;4.45;;;3.42;;
56997;SDS011;42890;44.244;22.530;2023-07-29T08:20:09;3.70;;;3.13;;
56997;SDS011;42890;44.244;22.530;2023-07-29T08:22:35;3.88;;;3.20;;
56997;SDS011;42890;44.244;22.530;2023-07-29T08:25:01;7.50;;;3.40;;
56997;SDS011;42890;44.244;22.530;2023-07-29T08:27:27;5.95;;;3.50;;
56997;SDS011;42890;44.244;22.530;2023-07-29T08:29:53;4.78;;;3.80;;
56997;SDS011;42890;44.244;22.530;2023-07-29T08:32:20;4.88;;;3.30;;
56997;SDS011;42890;44.244;22.530;2023-07-29T08:34:46;5.63;;;3.60;;
56997;SDS011;42890;44.244;22.530;2023-07-29T08:37:12;4.78;;;3.13;;
56997;SDS011;42890;44.244;22.530;2023-07-29T08:39:38;4.13;;;3.72;;
56997;SDS011;42890;44.244;22.530;2023-07-29T08:42:04;6.05;;;3.80;;
56997;SDS011;42890;44.244;22.530;2023-07-29T08:44:41;4.20;;;3.20;;
56997;SDS011;42890;44.244;22.530;2023-07-29T08:47:07;6.63;;;3.70;;
56997;SDS011;42890;44.244;22.530;2023-07-29T08:49:33;11.10;;;3.72;;
56997;SDS011;42890;44.244;22.530;2023-07-29T08:51:59;3.95;;;3.42;;
56997;SDS011;42890;44.244;22.530;2023-07-29T08:54:26;4.88;;;3.47;;
56997;SDS011;42890;44.244;22.530;2023-07-29T08:56:53;4.35;;;3.40;;
56997;SDS011;42890;44.244;22.530;2023-07-29T08:59:19;5.93;;;3.60;;
56997;SDS011;42890;44.244;22.530;2023-07-29T09:01:46;13.40;;;3.58;;
56997;SDS011;42890;44.244;22.530;2023-07-29T09:04:13;7.22;;;3.60;;
56997;SDS011;42890;44.244;22.530;2023-07-29T09:06:39;4.35;;;3.17;;
56997;SDS011;42890;44.244;22.530;2023-07-29T09:09:07;6.38;;;3.72;;
56997;SDS011;42890;44.244;22.530;2023-07-29T09:11:34;3.53;;;3.20;;
56997;SDS011;42890;44.244;22.530;2023-07-29T09:14:00;4.55;;;3.53;;
56997;SDS011;42890;44.244;22.530;2023-07-29T09:16:26;4.50;;;3.55;;
56997;SDS011;42890;44.244;22.530;2023-07-29T09:18:53;4.45;;;3.50;;
56997;SDS011;42890;44.244;22.530;2023-07-29T09:21:24;5.72;;;3.78;;
56997;SDS011;42890;44.244;22.530;2023-07-29T09:23:52;5.75;;;3.85;;
56997;SDS011;42890;44.244;22.530;2023-07-29T09:26:27;7.78;;;3.92;;
56997;SDS011;42890;44.244;22.530;2023-07-29T09:28:54;7.00;;;3.90;;
56997;SDS011;42890;44.244;22.530;2023-07-29T09:31:25;3.88;;;3.42;;
56997;SDS011;42890;44.244;22.530;2023-07-29T09:33:58;6.03;;;3.63;;
56997;SDS011;42890;44.244;22.530;2023-07-29T09:36:24;3.90;;;3.50;;
56997;SDS011;42890;44.244;22.530;2023-07-29T09:38:54;3.75;;;3.28;;
56997;SDS011;42890;44.244;22.530;2023-07-29T09:41:24;3.80;;;3.50;;
56997;SDS011;42890;44.244;22.530;2023-07-29T09:43:57;6.25;;;3.70;;
56997;SDS011;42890;44.244;22.530;2023-07-29T09:46:24;5.32;;;3.90;;
56997;SDS011;42890;44.244;22.530;2023-07-29T09:48:52;3.92;;;3.53;;
56997;SDS011;42890;44.244;22.530;2023-07-29T09:51:20;4.43;;;4.00;;
56997;SDS011;42890;44.244;22.530;2023-07-29T09:53:47;4.20;;;3.08;;
56997;SDS011;42890;44.244;22.530;2023-07-29T09:56:14;4.40;;;3.63;;
56997;SDS011;42890;44.244;22.530;2023-07-29T09:58:40;5.65;;;3.47;;
56997;SDS011;42890;44.244;22.530;2023-07-29T10:01:10;4.72;;;3.13;;
56997;SDS011;42890;44.244;22.530;2023-07-29T10:03:36;6.43;;;3.90;;
56997;SDS011;42890;44.244;22.530;2023-07-29T10:06:03;6.10;;;3.30;;
56997;SDS011;42890;44.244;22.530;2023-07-29T10:08:30;4.95;;;3.17;;
56997;SDS011;42890;44.244;22.530;2023-07-29T10:11:06;6.50;;;3.53;;
56997;SDS011;42890;44.244;22.530;2023-07-29T10:13:33;3.78;;;3.38;;
56997;SDS011;42890;44.244;22.530;2023-07-29T10:15:59;3.78;;;3.45;;
56997;SDS011;42890;44.244;22.530;2023-07-29T10:18:30;6.53;;;3.15;;
56997;SDS011;42890;44.244;22.530;2023-07-29T10:20:57;4.07;;;3.35;;
56997;SDS011;42890;44.244;22.530;2023-07-29T10:23:27;4.38;;;2.95;;
56997;SDS011;42890;44.244;22.530;2023-07-29T10:25:57;3.92;;;3.50;;
56997;SDS011;42890;44.244;22.530;2023-07-29T10:28:26;4.13;;;2.70;;
56997;SDS011;42890;44.244;22.530;2023-07-29T10:30:52;6.45;;;3.42;;
56997;SDS011;42890;44.244;22.530;2023-07-29T10:33:19;7.63;;;3.28;;
56997;SDS011;42890;44.244;22.530;2023-07-29T10:35:45;3.88;;;3.45;;
56997;SDS011;42890;44.244;22.530;2023-07-29T10:38:12;4.30;;;2.95;;
56997;SDS011;42890;44.244;22.530;2023-07-29T10:40:51;5.88;;;3.00;;
56997;SDS011;42890;44.244;22.530;2023-07-29T10:43:27;3.55;;;3.22;;
56997;SDS011;42890;44.244;22.530;2023-07-29T10:45:57;3.58;;;3.28;;
56997;SDS011;42890;44.244;22.530;2023-07-29T10:51:42;6.47;;;3.17;;
56997;SDS011;42890;44.244;22.530;2023-07-29T10:53:57;5.22;;;2.95;;
56997;SDS011;42890;44.244;22.530;2023-07-29T10:56:30;3.42;;;2.80;;
56997;SDS011;42890;44.244;22.530;2023-07-29T10:58:58;3.40;;;3.10;;
56997;SDS011;42890;44.244;22.530;2023-07-29T11:01:28;4.18;;;2.80;;
56997;SDS011;42890;44.244;22.530;2023-07-29T11:04:21;8.18;;;3.10;;
56997;SDS011;42890;44.244;22.530;2023-07-29T11:07:24;4.43;;;3.10;;
56997;SDS011;42890;44.244;22.530;2023-07-29T11:15:03;4.82;;;3.00;;
56997;SDS011;42890;44.244;22.530;2023-07-29T11:17:32;4.88;;;2.90;;
56997;SDS011;42890;44.244;22.530;2023-07-29T11:20:02;11.07;;;3.25;;
56997;SDS011;42890;44.244;22.530;2023-07-29T11:22:29;4.55;;;3.20;;
56997;SDS011;42890;44.244;22.530;2023-07-29T11:24:55;2.63;;;2.42;;
56997;SDS011;42890;44.244;22.530;2023-07-29T11:27:22;4.65;;;3.10;;
56997;SDS011;42890;44.244;22.530;2023-07-29T11:29:48;5.28;;;2.80;;
56997;SDS011;42890;44.244;22.530;2023-07-29T11:32:15;3.30;;;3.00;;
56997;SDS011;42890;44.244;22.530;2023-07-29T11:34:41;2.80;;;2.50;;
56997;SDS011;42890;44.244;22.530;2023-07-29T11:37:10;4.72;;;2.92;;
56997;SDS011;42890;44.244;22.530;2023-07-29T11:39:40;4.88;;;3.40;;
56997;SDS011;42890;44.244;22.530;2023-07-29T11:42:06;4.45;;;2.72;;
56997;SDS011;42890;44.244;22.530;2023-07-29T11:44:32;3.63;;;3.10;;
56997;SDS011;42890;44.244;22.530;2023-07-29T11:46:58;5.70;;;2.70;;
56997;SDS011;42890;44.244;22.530;2023-07-29T11:49:25;3.30;;;2.70;;
56997;SDS011;42890;44.244;22.530;2023-07-29T11:51:51;4.10;;;2.80;;
56997;SDS011;42890;44.244;22.530;2023-07-29T11:54:18;3.83;;;3.08;;
56997;SDS011;42890;44.244;22.530;2023-07-29T11:56:46;5.15;;;3.00;;
56997;SDS011;42890;44.244;22.530;2023-07-29T11:59:15;5.00;;;3.08;;
56997;SDS011;42890;44.244;22.530;2023-07-29T12:01:41;3.53;;;2.95;;
56997;SDS011;42890;44.244;22.530;2023-07-29T12:04:07;2.80;;;2.60;;
56997;SDS011;42890;44.244;22.530;2023-07-29T12:06:33;15.55;;;4.32;;
56997;SDS011;42890;44.244;22.530;2023-07-29T12:08:59;68.50;;;7.13;;
56997;SDS011;42890;44.244;22.530;2023-07-29T12:11:26;17.42;;;3.67;;
56997;SDS011;42890;44.244;22.530;2023-07-29T12:13:55;7.63;;;2.45;;
56997;SDS011;42890;44.244;22.530;2023-07-29T12:16:21;3.55;;;2.83;;
56997;SDS011;42890;44.244;22.530;2023-07-29T12:18:49;3.65;;;2.60;;
56997;SDS011;42890;44.244;22.530;2023-07-29T12:21:16;6.75;;;2.58;;
56997;SDS011;42890;44.244;22.530;2023-07-29T12:23:43;3.72;;;2.65;;
56997;SDS011;42890;44.244;22.530;2023-07-29T12:26:09;4.72;;;2.58;;
56997;SDS011;42890;44.244;22.530;2023-07-29T12:28:35;3.88;;;2.50;;
56997;SDS011;42890;44.244;22.530;2023-07-29T12:31:01;3.15;;;2.40;;
56997;SDS011;42890;44.244;22.530;2023-07-29T12:33:31;2.67;;;2.47;;
56997;SDS011;42890;44.244;22.530;2023-07-29T12:35:57;2.60;;;2.38;;
56997;SDS011;42890;44.244;22.530;2023-07-29T12:38:25;2.50;;;2.30;;
56997;SDS011;42890;44.244;22.530;2023-07-29T12:40:51;2.90;;;2.38;;
56997;SDS011;42890;44.244;22.530;2023-07-29T12:43:18;3.53;;;2.33;;
56997;SDS011;42890;44.244;22.530;2023-07-29T12:45:44;2.58;;;2.38;;
56997;SDS011;42890;44.244;22.530;2023-07-29T12:48:11;2.78;;;2.20;;
56997;SDS011;42890;44.244;22.530;2023-07-29T12:50:37;4.07;;;2.10;;
56997;SDS011;42890;44.244;22.530;2023-07-29T12:53:04;4.25;;;1.90;;
56997;SDS011;42890;44.244;22.530;2023-07-29T12:55:31;2.00;;;1.90;;
56997;SDS011;42890;44.244;22.530;2023-07-29T12:57:57;2.55;;;2.10;;
56997;SDS011;42890;44.244;22.530;2023-07-29T13:00:24;3.97;;;2.28;;
56997;SDS011;42890;44.244;22.530;2023-07-29T13:02:50;4.75;;;2.05;;
56997;SDS011;42890;44.244;22.530;2023-07-29T13:05:16;2.55;;;2.30;;
56997;SDS011;42890;44.244;22.530;2023-07-29T13:07:43;3.08;;;2.40;;
56997;SDS011;42890;44.244;22.530;2023-07-29T13:10:09;4.25;;;2.03;;
56997;SDS011;42890;44.244;22.530;2023-07-29T13:12:36;10.48;;;2.47;;
56997;SDS011;42890;44.244;22.530;2023-07-29T13:15:02;2.28;;;2.08;;
56997;SDS011;42890;44.244;22.530;2023-07-29T13:17:28;5.13;;;2.22;;
56997;SDS011;42890;44.244;22.530;2023-07-29T13:19:54;2.67;;;2.17;;
56997;SDS011;42890;44.244;22.530;2023-07-29T13:22:20;3.35;;;2.05;;
56997;SDS011;42890;44.244;22.530;2023-07-29T13:24:47;4.00;;;2.35;;
56997;SDS011;42890;44.244;22.530;2023-07-29T13:27:13;6.13;;;2.58;;
56997;SDS011;42890;44.244;22.530;2023-07-29T13:29:39;2.20;;;2.10;;
56997;SDS011;42890;44.244;22.530;2023-07-29T13:32:06;4.72;;;2.65;;
56997;SDS011;42890;44.244;22.530;2023-07-29T13:34:32;3.42;;;2.00;;
56997;SDS011;42890;44.244;22.530;2023-07-29T13:36:59;3.67;;;2.50;;
56997;SDS011;42890;44.244;22.530;2023-07-29T13:39:25;5.82;;;2.35;;
56997;SDS011;42890;44.244;22.530;2023-07-29T13:41:52;8.13;;;2.20;;
56997;SDS011;42890;44.244;22.530;2023-07-29T13:44:18;2.70;;;2.50;;
56997;SDS011;42890;44.244;22.530;2023-07-29T13:46:44;3.45;;;2.20;;
56997;SDS011;42890;44.244;22.530;2023-07-29T13:49:11;2.50;;;2.30;;
56997;SDS011;42890;44.244;22.530;2023-07-29T13:51:37;2.20;;;2.10;;
56997;SDS011;42890;44.244;22.530;2023-07-29T13:54:03;3.03;;;2.30;;
56997;SDS011;42890;44.244;22.530;2023-07-29T13:56:30;2.72;;;2.15;;
56997;SDS011;42890;44.244;22.530;2023-07-29T13:58:56;3.35;;;2.08;;
56997;SDS011;42890;44.244;22.530;2023-07-29T14:01:22;4.28;;;2.50;;
56997;SDS011;42890;44.244;22.530;2023-07-29T14:03:49;2.35;;;2.15;;
56997;SDS011;42890;44.244;22.530;2023-07-29T14:06:15;2.10;;;1.90;;
56997;SDS011;42890;44.244;22.530;2023-07-29T14:08:41;4.95;;;2.35;;
56997;SDS011;42890;44.244;22.530;2023-07-29T14:11:07;2.08;;;1.80;;
56997;SDS011;42890;44.244;22.530;2023-07-29T14:13:33;4.38;;;2.22;;
56997;SDS011;42890;44.244;22.530;2023-07-29T14:16:03;3.42;;;2.25;;
56997;SDS011;42890;44.244;22.530;2023-07-29T14:18:29;4.18;;;2.17;;
56997;SDS011;42890;44.244;22.530;2023-07-29T14:20:56;2.83;;;2.40;;
56997;SDS011;42890;44.244;22.530;2023-07-29T14:23:22;3.33;;;2.45;;
56997;SDS011;42890;44.244;22.530;2023-07-29T14:25:48;3.30;;;2.10;;
56997;SDS011;42890;44.244;22.530;2023-07-29T14:28:14;3.28;;;2.30;;
56997;SDS011;42890;44.244;22.530;2023-07-29T14:30:40;2.40;;;2.20;;
56997;SDS011;42890;44.244;22.530;2023-07-29T14:33:06;2.28;;;2.00;;
56997;SDS011;42890;44.244;22.530;2023-07-29T14:35:33;2.22;;;1.80;;
56997;SDS011;42890;44.244;22.530;2023-07-29T14:37:59;2.58;;;1.80;;
56997;SDS011;42890;44.244;22.530;2023-07-29T14:40:25;4.00;;;1.90;;
56997;SDS011;42890;44.244;22.530;2023-07-29T14:42:52;3.58;;;1.70;;
56997;SDS011;42890;44.244;22.530;2023-07-29T14:45:18;2.67;;;1.70;;
56997;SDS011;42890;44.244;22.530;2023-07-29T14:47:44;2.28;;;1.70;;
56997;SDS011;42890;44.244;22.530;2023-07-29T14:50:10;2.20;;;1.65;;